Aviation Digital Data Service (ADDS)

Output produced by METARs form (1306 UTC 08 May 2021)
found at http://aviationweather.gov/metar/data/
 
KIAH 081120Z 0812/0918 17005KT P6SM SCT250 
     FM081500 16014G24KT P6SM SCT030 
     FM081800 17015G25KT P6SM SCT045 
     FM090100 16014KT P6SM SCT025 
     FM090600 17015KT P6SM BKN025 
     FM090900 17012KT P6SM BKN015 
     FM091500 18014KT P6SM BKN025